createdAt,value
2019-02-14T00:00:24.719Z,135.77
2019-02-14T00:03:04.777Z,137.83
2019-02-14T00:05:48.461Z,135.60
2019-02-14T00:08:29.767Z,138.47
2019-02-14T00:11:11.582Z,137.40
2019-02-14T00:13:56.541Z,146.90
2019-02-14T00:16:38.789Z,136.90
2019-02-14T00:19:17.721Z,130.27
2019-02-14T00:21:59.556Z,135.30
2019-02-14T00:24:40.364Z,133.23
2019-02-14T00:27:22.345Z,126.73
2019-02-14T00:30:02.569Z,145.07
2019-02-14T00:32:46.149Z,138.73
2019-02-14T00:35:27.169Z,137.87
2019-02-14T00:38:10.141Z,126.00
2019-02-14T00:40:50.324Z,350.13
2019-02-14T00:43:30.914Z,175.33
2019-02-14T00:46:10.522Z,144.93
2019-02-14T00:48:56.832Z,128.30
2019-02-14T00:51:38.009Z,131.67
2019-02-14T00:54:20.506Z,121.03
2019-02-14T00:57:06.602Z,139.50
2019-02-14T00:59:47.977Z,130.57
2019-02-14T01:02:30.788Z,128.67
2019-02-14T01:05:16.311Z,131.87
2019-02-14T01:08:05.379Z,133.10
2019-02-14T01:10:45.606Z,124.70
2019-02-14T01:13:28.079Z,156.23
2019-02-14T01:16:11.988Z,161.10
2019-02-14T01:18:55.135Z,146.63
2019-02-14T01:21:37.110Z,144.43
2019-02-14T01:24:19.423Z,136.23
2019-02-14T01:27:00.682Z,128.97
2019-02-14T01:29:51.741Z,138.83
2019-02-14T01:32:32.940Z,131.47
2019-02-14T01:35:16.836Z,135.20
2019-02-14T01:38:00.314Z,138.53
2019-02-14T01:40:42.927Z,215.17
2019-02-14T01:43:27.013Z,152.33
2019-02-14T01:46:07.272Z,147.90
2019-02-14T01:48:52.136Z,132.20
2019-02-14T01:51:35.429Z,138.20
2019-02-14T01:54:16.975Z,124.40
2019-02-14T01:56:58.719Z,137.90
2019-02-14T01:59:44.531Z,144.30
2019-02-14T02:02:25.432Z,142.50
2019-02-14T02:05:10.398Z,141.40
2019-02-14T02:07:52.454Z,130.13
2019-02-14T02:10:42.055Z,135.20
2019-02-14T02:13:15.164Z,133.63
2019-02-14T02:15:57.438Z,128.83
2019-02-14T02:18:46.453Z,130.23
2019-02-14T02:21:26.945Z,126.97
2019-02-14T02:24:09.127Z,123.97
2019-02-14T02:26:48.958Z,122.77
2019-02-14T02:29:40.802Z,124.90
2019-02-14T02:32:24.602Z,131.33
2019-02-14T02:35:05.488Z,154.87
2019-02-14T02:37:56.981Z,134.27
2019-02-14T02:40:36.342Z,146.30
2019-02-14T02:43:28.034Z,129.10
2019-02-14T02:46:12.157Z,144.70
2019-02-14T02:49:10.253Z,184.20
2019-02-14T02:51:52.563Z,170.03
2019-02-14T02:54:34.020Z,188.40
2019-02-14T02:57:22.321Z,189.17
2019-02-14T03:00:03.473Z,320.63
2019-02-14T03:02:46.222Z,186.60
2019-02-14T03:05:31.348Z,157.77
2019-02-14T03:08:18.475Z,152.03
2019-02-14T03:11:05.367Z,147.97
2019-02-14T03:14:05.684Z,139.23
2019-02-14T03:16:45.056Z,172.47
2019-02-14T03:19:26.414Z,137.87
2019-02-14T03:22:14.263Z,140.30
2019-02-14T03:24:58.788Z,136.73
2019-02-14T03:27:39.322Z,141.13
2019-02-14T03:30:21.862Z,128.57
2019-02-14T03:33:15.573Z,279.30
2019-02-14T03:36:01.243Z,200.30
2019-02-14T03:38:59.700Z,141.23
2019-02-14T03:41:44.263Z,158.53
2019-02-14T03:44:33.097Z,154.80
2019-02-14T03:47:18.364Z,151.70
2019-02-14T03:50:03.766Z,359.13
2019-02-14T03:52:52.419Z,187.77
2019-02-14T03:55:40.550Z,179.10
2019-02-14T03:58:24.380Z,219.77
2019-02-14T04:01:09.806Z,188.07
2019-02-14T04:03:54.620Z,167.40
2019-02-14T04:06:52.312Z,154.23
2019-02-14T04:09:39.241Z,174.17
2019-02-14T04:12:24.905Z,208.67
2019-02-14T04:15:05.390Z,179.70
2019-02-14T04:18:05.760Z,194.00
2019-02-14T04:20:45.913Z,207.90
2019-02-14T04:23:30.757Z,299.73
2019-02-14T04:26:23.704Z,284.90
2019-02-14T04:29:11.659Z,431.63
2019-02-14T04:32:05.050Z,335.63
2019-02-14T04:35:07.165Z,256.40
2019-02-14T04:37:50.923Z,217.17
2019-02-14T04:40:52.589Z,532.47
2019-02-14T04:43:47.978Z,271.60
2019-02-14T04:46:42.037Z,217.47
2019-02-14T04:49:28.386Z,251.80
2019-02-14T04:52:18.635Z,314.07
2019-02-14T04:55:16.792Z,403.23
2019-02-14T04:58:08.656Z,315.47
2019-02-14T05:01:12.947Z,267.63
2019-02-14T05:04:06.047Z,288.83
2019-02-14T05:07:12.088Z,539.57
2019-02-14T05:09:59.889Z,324.70
2019-02-14T05:12:44.606Z,256.13
2019-02-14T05:15:31.244Z,241.57
2019-02-14T05:18:16.445Z,195.60
2019-02-14T05:20:57.749Z,177.63
2019-02-14T05:27:00.137Z,177.60
2019-02-14T05:29:50.619Z,244.03
2019-02-14T05:32:39.447Z,171.03
2019-02-14T05:35:25.284Z,149.20
2019-02-14T05:38:10.084Z,155.53
2019-02-14T05:41:04.222Z,137.27
2019-02-14T05:43:49.916Z,336.93
2019-02-14T05:46:42.912Z,185.90
2019-02-14T05:49:44.310Z,140.97
2019-02-14T05:55:53.369Z,142.80
2019-02-14T05:58:44.731Z,131.80
2019-02-14T06:01:31.450Z,125.90
2019-02-14T06:04:19.128Z,133.60
2019-02-14T06:07:18.259Z,126.33
2019-02-14T06:10:04.873Z,125.23
2019-02-14T06:12:59.245Z,114.27
2019-02-14T06:15:47.253Z,112.43
2019-02-14T06:18:29.618Z,114.00
2019-02-14T06:21:20.717Z,108.13
2019-02-14T06:24:14.057Z,113.93
2019-02-14T06:27:04.902Z,113.07
2019-02-14T06:29:49.140Z,114.07
2019-02-14T06:32:34.088Z,105.47
2019-02-14T06:35:20.405Z,132.57
2019-02-14T06:38:06.745Z,111.00
2019-02-14T06:44:01.201Z,111.63
2019-02-14T06:47:01.746Z,109.13
2019-02-14T06:49:48.551Z,111.33
2019-02-14T06:52:29.195Z,119.57
2019-02-14T06:55:09.635Z,107.90
2019-02-14T06:58:06.071Z,105.90
2019-02-14T07:00:55.182Z,114.80
2019-02-14T07:03:39.343Z,111.60
2019-02-14T07:09:29.298Z,123.53
2019-02-14T07:12:22.512Z,112.93
2019-02-14T07:15:33.934Z,111.97
2019-02-14T07:18:33.032Z,110.97
2019-02-14T07:21:17.113Z,105.73
2019-02-14T07:24:19.214Z,116.40
2019-02-14T07:27:11.635Z,110.07
2019-02-14T07:30:09.225Z,112.37
2019-02-14T07:32:50.213Z,116.43
2019-02-14T07:35:43.961Z,102.90
2019-02-14T07:38:34.894Z,105.43
2019-02-14T07:41:28.988Z,113.17
2019-02-14T07:44:30.997Z,101.03
2019-02-14T07:47:18.267Z,108.63
2019-02-14T07:50:14.050Z,116.23
2019-02-14T07:53:02.311Z,123.97
2019-02-14T07:55:47.143Z,119.87
2019-02-14T07:58:48.696Z,122.07
2019-02-14T08:01:48.013Z,111.33
2019-02-14T08:04:40.494Z,117.47
2019-02-14T08:07:41.397Z,111.13
2019-02-14T08:10:23.314Z,101.67
2019-02-14T08:13:13.255Z,113.20
2019-02-14T08:16:03.063Z,123.80
2019-02-14T08:19:04.146Z,109.17
2019-02-14T08:21:50.863Z,117.13
2019-02-14T08:24:37.613Z,103.07
2019-02-14T08:27:21.031Z,114.23
2019-02-14T08:30:05.297Z,121.47
2019-02-14T08:32:50.443Z,138.90
2019-02-14T08:35:36.104Z,134.37
2019-02-14T08:41:33.666Z,106.10
2019-02-14T08:44:20.138Z,115.13
2019-02-14T08:47:14.184Z,111.57
2019-02-14T08:49:58.506Z,109.80
2019-02-14T08:52:43.428Z,113.23
2019-02-14T08:55:41.084Z,107.23
2019-02-14T08:58:38.059Z,111.40
2019-02-14T09:01:28.954Z,109.57
2019-02-14T09:04:13.846Z,113.97
2019-02-14T09:06:53.864Z,115.27
2019-02-14T09:09:45.921Z,113.83
2019-02-14T09:12:43.646Z,118.30
2019-02-14T09:15:38.183Z,122.10
2019-02-14T09:18:26.611Z,107.67
2019-02-14T09:21:26.991Z,123.90
2019-02-14T09:24:20.873Z,110.10
2019-02-14T09:27:13.724Z,117.13
2019-02-14T09:29:55.472Z,120.63
2019-02-14T09:32:38.744Z,139.77
2019-02-14T09:35:27.278Z,137.67
2019-02-14T09:38:27.903Z,129.30
2019-02-14T09:41:14.920Z,135.27
2019-02-14T09:47:05.414Z,131.87
2019-02-14T09:49:47.940Z,158.10
2019-02-14T09:52:44.561Z,133.20
2019-02-14T09:55:34.171Z,142.60
2019-02-14T09:58:22.615Z,121.03
2019-02-14T10:01:06.980Z,131.70
2019-02-14T10:03:59.309Z,108.70
2019-02-14T10:06:43.821Z,118.57
2019-02-14T10:09:27.966Z,122.33
2019-02-14T10:12:18.013Z,112.10
2019-02-14T10:15:27.035Z,141.00
2019-02-14T10:18:28.655Z,120.27
2019-02-14T10:21:17.061Z,144.03
2019-02-14T10:24:06.102Z,162.30
2019-02-14T10:26:46.224Z,141.80
2019-02-14T10:29:44.309Z,115.83
2019-02-14T10:32:32.835Z,133.23
2019-02-14T10:35:18.621Z,120.53
2019-02-14T10:38:03.038Z,117.13
2019-02-14T10:40:57.720Z,107.77
2019-02-14T10:43:48.800Z,122.03
2019-02-14T10:46:28.648Z,129.57
2019-02-14T10:49:18.444Z,128.70
2019-02-14T10:52:07.577Z,134.60
2019-02-14T10:54:56.500Z,113.33
2019-02-14T10:57:52.033Z,104.53
2019-02-14T11:00:47.431Z,115.90
2019-02-14T11:03:49.562Z,132.63
2019-02-14T11:06:43.359Z,133.77
2019-02-14T11:09:27.856Z,126.13
2019-02-14T11:12:23.198Z,112.97
2019-02-14T11:15:22.609Z,121.47
2019-02-14T11:18:11.218Z,116.33
2019-02-14T11:21:19.875Z,121.30
2019-02-14T11:23:57.839Z,124.00
2019-02-14T11:27:07.764Z,214.33
2019-02-14T11:29:48.645Z,408.20
2019-02-14T11:32:49.593Z,186.87
2019-02-14T11:35:34.047Z,173.33
2019-02-14T11:38:17.966Z,158.33
2019-02-14T11:41:23.531Z,161.57
2019-02-14T11:44:11.717Z,132.70
2019-02-14T11:46:56.397Z,129.40
2019-02-14T11:49:52.609Z,152.30
2019-02-14T11:52:34.341Z,154.33
2019-02-14T11:55:34.188Z,128.80
2019-02-14T11:58:26.246Z,127.83
2019-02-14T12:01:31.808Z,129.57
2019-02-14T12:04:12.304Z,172.70
2019-02-14T12:06:55.948Z,157.03
2019-02-14T12:09:55.733Z,131.10
2019-02-14T12:12:57.762Z,128.73
2019-02-14T12:15:52.854Z,141.20
2019-02-14T12:18:56.684Z,129.93
2019-02-14T12:21:43.708Z,136.73
2019-02-14T12:24:34.934Z,127.20
2019-02-14T12:27:38.258Z,119.67
2019-02-14T12:30:36.885Z,129.33
2019-02-14T12:33:34.213Z,112.43
2019-02-14T12:36:30.977Z,131.10
2019-02-14T12:39:24.487Z,127.50
2019-02-14T12:42:34.389Z,138.27
2019-02-14T12:45:26.027Z,122.00
2019-02-14T12:48:34.958Z,131.37
2019-02-14T12:51:37.367Z,138.40
2019-02-14T12:54:39.065Z,136.40
2019-02-14T12:57:29.145Z,167.23
2019-02-14T13:00:25.816Z,147.57
2019-02-14T13:06:40.473Z,140.70
2019-02-14T13:09:22.308Z,146.03
2019-02-14T13:18:45.376Z,144.43
2019-02-14T13:21:37.674Z,135.00
2019-02-14T13:24:56.879Z,127.80
2019-02-14T13:27:51.014Z,136.10
2019-02-14T13:30:54.596Z,124.30
2019-02-14T13:40:45.961Z,350.57
2019-02-14T13:43:51.656Z,175.53
2019-02-14T13:46:52.670Z,149.50
2019-02-14T13:49:46.307Z,158.47
2019-02-14T13:53:20.104Z,143.87
2019-02-14T13:56:27.833Z,157.37
2019-02-14T13:59:32.173Z,137.90
2019-02-14T14:02:39.669Z,136.53
2019-02-14T14:05:56.561Z,142.90
2019-02-14T14:12:01.552Z,153.97
2019-02-14T14:15:08.168Z,154.97
2019-02-14T14:18:08.202Z,153.97
2019-02-14T14:24:04.527Z,157.93
2019-02-14T14:27:17.781Z,154.43
2019-02-14T14:30:16.016Z,148.07
2019-02-14T14:33:04.470Z,144.30
2019-02-14T14:36:05.522Z,148.67
2019-02-14T14:42:46.404Z,144.23
2019-02-14T14:45:26.245Z,133.73
2019-02-14T14:48:20.023Z,139.67
2019-02-14T14:51:22.153Z,146.23
2019-02-14T14:54:23.415Z,140.83
2019-02-14T15:00:39.291Z,142.07
2019-02-14T15:03:48.406Z,143.53
2019-02-14T15:06:52.258Z,137.23
2019-02-14T15:09:57.023Z,139.30
2019-02-14T15:13:02.756Z,129.30
2019-02-14T15:15:54.589Z,135.60
2019-02-14T15:19:09.397Z,135.30
2019-02-14T15:22:27.140Z,142.20
2019-02-14T15:25:36.528Z,132.73
2019-02-14T15:28:39.539Z,143.43
2019-02-14T15:31:29.119Z,140.13
2019-02-14T15:35:01.924Z,142.77
2019-02-14T15:41:25.807Z,136.67
2019-02-14T15:51:08.978Z,147.97
2019-02-14T15:54:10.006Z,152.37
2019-02-14T16:03:52.091Z,153.97
2019-02-14T16:06:47.629Z,142.53
2019-02-14T16:09:53.033Z,154.03
2019-02-14T16:12:57.757Z,147.80
2019-02-14T16:16:08.878Z,150.37
2019-02-14T16:18:57.379Z,142.50
2019-02-14T16:21:56.131Z,152.57
2019-02-14T16:24:52.665Z,156.03
2019-02-14T16:27:53.548Z,144.40
2019-02-14T16:33:54.457Z,147.13
2019-02-14T16:36:46.130Z,154.30
2019-02-14T16:39:51.299Z,144.70
2019-02-14T16:42:45.094Z,152.80
2019-02-14T16:45:54.400Z,142.27
2019-02-14T16:48:48.681Z,150.60
2019-02-14T16:51:46.378Z,154.40
2019-02-14T16:54:39.119Z,163.13
2019-02-14T16:57:49.413Z,150.73
2019-02-14T17:00:52.814Z,150.93
2019-02-14T17:03:42.829Z,161.20
2019-02-14T17:06:31.141Z,158.20
2019-02-14T17:09:23.514Z,160.60
2019-02-14T17:12:27.795Z,163.90
2019-02-14T17:15:28.180Z,179.73
2019-02-14T17:18:26.047Z,172.70
2019-02-14T17:21:10.510Z,167.97
2019-02-14T17:24:07.504Z,166.90
2019-02-14T17:26:57.422Z,164.63
2019-02-14T17:29:57.010Z,169.23
2019-02-14T17:32:54.820Z,171.77
2019-02-14T17:35:51.338Z,151.50
2019-02-14T17:38:56.731Z,159.33
2019-02-14T17:41:55.274Z,174.63
2019-02-14T17:44:47.143Z,172.63
2019-02-14T17:47:36.049Z,171.23
2019-02-14T17:50:31.345Z,191.93
2019-02-14T17:53:35.571Z,177.07
2019-02-14T17:56:23.654Z,170.67
2019-02-14T17:59:15.563Z,172.00
2019-02-14T18:05:06.322Z,167.87
2019-02-14T18:07:49.826Z,173.20
2019-02-14T18:10:44.880Z,180.00
2019-02-14T18:13:31.034Z,181.30
2019-02-14T18:16:25.089Z,169.67
2019-02-14T18:19:23.349Z,166.63
2019-02-14T18:22:16.863Z,168.93
2019-02-14T18:25:18.479Z,165.07
2019-02-14T18:28:11.555Z,179.13
2019-02-14T18:31:01.670Z,186.03
2019-02-14T18:33:45.808Z,176.57
2019-02-14T18:36:40.097Z,175.47
2019-02-14T18:39:30.264Z,169.30
2019-02-14T18:42:30.228Z,172.40
2019-02-14T18:45:10.543Z,174.00
2019-02-14T18:47:53.853Z,175.23
2019-02-14T18:50:35.946Z,163.27
2019-02-14T18:53:20.298Z,173.80
2019-02-14T18:55:59.790Z,177.17
2019-02-14T18:58:45.502Z,170.37
2019-02-14T19:01:37.419Z,167.83
2019-02-14T19:04:27.490Z,167.10
2019-02-14T19:07:24.747Z,175.07
2019-02-14T19:10:26.523Z,177.60
2019-02-14T19:13:14.580Z,167.47
2019-02-14T19:15:54.546Z,176.63
2019-02-14T19:18:53.938Z,167.77
2019-02-14T19:21:38.071Z,171.87
2019-02-14T19:24:22.201Z,163.87
2019-02-14T19:27:04.711Z,161.87
2019-02-14T19:29:53.420Z,162.03
2019-02-14T19:32:43.726Z,168.67
2019-02-14T19:35:30.973Z,168.83
2019-02-14T19:38:14.362Z,172.97
2019-02-14T19:41:02.392Z,169.50
2019-02-14T19:43:52.983Z,166.60
2019-02-14T19:46:34.781Z,168.10
2019-02-14T19:49:21.976Z,168.03
2019-02-14T19:52:09.063Z,173.87
2019-02-14T19:54:52.265Z,162.73
2019-02-14T19:57:48.321Z,166.77
2019-02-14T20:00:34.814Z,157.33
2019-02-14T20:03:18.200Z,169.10
2019-02-14T20:06:07.046Z,164.10
2019-02-14T20:08:52.086Z,153.90
2019-02-14T20:11:39.006Z,148.60
2019-02-14T20:14:19.750Z,161.80
2019-02-14T20:17:01.516Z,151.00
2019-02-14T20:19:40.933Z,163.17
2019-02-14T20:22:25.349Z,143.30
2019-02-14T20:25:11.016Z,146.33
2019-02-14T20:27:59.291Z,134.93
2019-02-14T20:30:50.803Z,128.80
2019-02-14T20:33:38.082Z,130.67
2019-02-14T20:36:16.791Z,106.43
2019-02-14T20:39:04.211Z,109.17
2019-02-14T20:41:49.137Z,95.30
2019-02-14T20:44:28.815Z,88.57
2019-02-14T20:47:09.876Z,92.13
2019-02-14T20:49:51.706Z,81.67
2019-02-14T20:52:38.652Z,77.03
2019-02-14T20:55:19.819Z,74.30
2019-02-14T20:58:05.927Z,71.83
2019-02-14T21:00:50.678Z,77.90
2019-02-14T21:03:34.612Z,68.73
2019-02-14T21:06:16.690Z,76.80
2019-02-14T21:08:59.606Z,79.37
2019-02-14T21:11:54.248Z,76.03
2019-02-14T21:14:31.856Z,70.73
2019-02-14T21:17:11.481Z,74.97
2019-02-14T21:19:55.613Z,79.20
2019-02-14T21:22:35.917Z,66.77
2019-02-14T21:25:16.317Z,63.03
2019-02-14T21:27:55.747Z,68.73
2019-02-14T21:30:35.790Z,62.97
2019-02-14T21:33:19.335Z,63.30
2019-02-14T21:36:01.597Z,65.40
2019-02-14T21:38:43.283Z,64.10
2019-02-14T21:41:29.347Z,65.57
2019-02-14T21:44:11.896Z,56.97
2019-02-14T21:46:54.983Z,58.40
2019-02-14T21:49:37.443Z,58.30
2019-02-14T21:52:18.954Z,69.47
2019-02-14T21:55:01.979Z,75.70
2019-02-14T21:57:46.253Z,62.13
2019-02-14T22:00:27.528Z,74.53
2019-02-14T22:03:09.810Z,71.20
2019-02-14T22:05:50.514Z,63.50
2019-02-14T22:08:31.991Z,65.90
2019-02-14T22:11:15.233Z,67.83
2019-02-14T22:13:58.907Z,58.90
2019-02-14T22:16:40.045Z,63.60
2019-02-14T22:19:24.316Z,67.93
2019-02-14T22:22:08.301Z,93.07
2019-02-14T22:24:50.091Z,114.10
2019-02-14T22:27:32.434Z,119.30
2019-02-14T22:30:17.389Z,117.97
2019-02-14T22:33:00.225Z,116.40
2019-02-14T22:35:46.277Z,120.00
2019-02-14T22:38:27.743Z,119.27
2019-02-14T22:41:08.531Z,115.97
2019-02-14T22:43:51.619Z,109.97
2019-02-14T22:46:33.759Z,133.67
2019-02-14T22:49:18.230Z,140.47
2019-02-14T22:52:01.004Z,122.57
2019-02-14T22:54:44.758Z,122.90
2019-02-14T22:57:24.018Z,120.27
2019-02-14T23:00:07.020Z,122.00
2019-02-14T23:02:49.717Z,125.37
2019-02-14T23:05:35.126Z,114.13
2019-02-14T23:08:16.226Z,114.30
2019-02-14T23:10:56.921Z,126.27
2019-02-14T23:13:37.460Z,137.13
2019-02-14T23:16:19.309Z,142.70
2019-02-14T23:19:02.309Z,133.67
2019-02-14T23:21:42.839Z,138.03
2019-02-14T23:24:25.464Z,182.20
2019-02-14T23:27:07.016Z,171.87
2019-02-14T23:29:46.299Z,153.80
2019-02-14T23:32:28.382Z,142.13
2019-02-14T23:35:12.534Z,135.77
2019-02-14T23:37:54.174Z,119.53
2019-02-14T23:40:36.389Z,117.83
2019-02-14T23:43:16.728Z,111.23
2019-02-14T23:45:59.217Z,113.43
2019-02-14T23:48:43.399Z,126.77
2019-02-14T23:51:24.732Z,146.03
2019-02-14T23:54:07.045Z,132.50
2019-02-14T23:56:50.443Z,124.80
2019-02-14T23:59:32.070Z,130.43
